sensor_id;sensor_type;location;lat;lon;timestamp;temperature;humidity
70074;DHT22;57445;51.058;3.698;2023-04-25T00:02:23;10.60;97.60
70074;DHT22;57445;51.058;3.698;2023-04-25T00:04:50;10.80;97.00
70074;DHT22;57445;51.058;3.698;2023-04-25T00:07:18;10.90;96.90
70074;DHT22;57445;51.058;3.698;2023-04-25T00:09:50;10.60;97.20
70074;DHT22;57445;51.058;3.698;2023-04-25T00:12:17;10.40;97.50
70074;DHT22;57445;51.058;3.698;2023-04-25T00:14:45;10.40;97.50
70074;DHT22;57445;51.058;3.698;2023-04-25T00:17:17;10.40;97.50
70074;DHT22;57445;51.058;3.698;2023-04-25T00:19:51;10.40;97.40
70074;DHT22;57445;51.058;3.698;2023-04-25T00:22:18;10.30;97.40
70074;DHT22;57445;51.058;3.698;2023-04-25T00:24:46;10.30;97.30
70074;DHT22;57445;51.058;3.698;2023-04-25T00:27:18;10.20;97.50
70074;DHT22;57445;51.058;3.698;2023-04-25T00:29:46;10.30;97.60
70074;DHT22;57445;51.058;3.698;2023-04-25T00:32:18;10.40;97.40
70074;DHT22;57445;51.058;3.698;2023-04-25T00:34:51;10.40;97.40
70074;DHT22;57445;51.058;3.698;2023-04-25T00:37:18;10.40;97.20
70074;DHT22;57445;51.058;3.698;2023-04-25T00:39:50;10.40;97.20
70074;DHT22;57445;51.058;3.698;2023-04-25T00:42:26;10.30;97.00
70074;DHT22;57445;51.058;3.698;2023-04-25T00:44:58;10.00;97.90
70074;DHT22;57445;51.058;3.698;2023-04-25T00:47:31;9.90;98.30
70074;DHT22;57445;51.058;3.698;2023-04-25T00:50:00;9.90;98.40
70074;DHT22;57445;51.058;3.698;2023-04-25T00:52:32;10.10;98.10
70074;DHT22;57445;51.058;3.698;2023-04-25T00:55:00;9.90;98.30
70074;DHT22;57445;51.058;3.698;2023-04-25T00:57:27;9.90;98.00
70074;DHT22;57445;51.058;3.698;2023-04-25T00:59:55;9.80;98.30
70074;DHT22;57445;51.058;3.698;2023-04-25T01:02:23;9.60;98.80
70074;DHT22;57445;51.058;3.698;2023-04-25T01:04:51;9.70;98.70
70074;DHT22;57445;51.058;3.698;2023-04-25T01:07:20;9.70;98.60
70074;DHT22;57445;51.058;3.698;2023-04-25T01:09:52;9.70;98.70
70074;DHT22;57445;51.058;3.698;2023-04-25T01:12:24;9.60;99.00
70074;DHT22;57445;51.058;3.698;2023-04-25T01:14:52;9.60;99.50
70074;DHT22;57445;51.058;3.698;2023-04-25T01:17:19;9.70;99.00
70074;DHT22;57445;51.058;3.698;2023-04-25T01:19:51;9.70;99.00
70074;DHT22;57445;51.058;3.698;2023-04-25T01:22:20;9.80;99.00
70074;DHT22;57445;51.058;3.698;2023-04-25T01:24:52;9.90;98.70
70074;DHT22;57445;51.058;3.698;2023-04-25T01:27:24;9.90;98.50
70074;DHT22;57445;51.058;3.698;2023-04-25T01:29:57;9.90;98.60
70074;DHT22;57445;51.058;3.698;2023-04-25T01:32:24;9.90;98.40
70074;DHT22;57445;51.058;3.698;2023-04-25T01:34:52;9.90;98.70
70074;DHT22;57445;51.058;3.698;2023-04-25T01:37:21;9.70;99.00
70074;DHT22;57445;51.058;3.698;2023-04-25T01:39:49;9.70;99.10
70074;DHT22;57445;51.058;3.698;2023-04-25T01:42:16;9.70;99.00
70074;DHT22;57445;51.058;3.698;2023-04-25T01:44:48;10.00;99.10
70074;DHT22;57445;51.058;3.698;2023-04-25T01:47:20;9.90;98.60
70074;DHT22;57445;51.058;3.698;2023-04-25T01:49:48;10.00;98.50
70074;DHT22;57445;51.058;3.698;2023-04-25T01:52:15;9.90;98.30
70074;DHT22;57445;51.058;3.698;2023-04-25T01:54:44;9.80;98.80
70074;DHT22;57445;51.058;3.698;2023-04-25T01:57:12;9.60;99.30
70074;DHT22;57445;51.058;3.698;2023-04-25T01:59:39;9.60;99.60
70074;DHT22;57445;51.058;3.698;2023-04-25T02:02:07;9.60;99.60
70074;DHT22;57445;51.058;3.698;2023-04-25T02:04:39;9.70;99.30
70074;DHT22;57445;51.058;3.698;2023-04-25T02:07:07;9.70;99.30
70074;DHT22;57445;51.058;3.698;2023-04-25T02:09:34;9.70;99.30
70074;DHT22;57445;51.058;3.698;2023-04-25T02:12:09;9.70;99.40
70074;DHT22;57445;51.058;3.698;2023-04-25T02:14:36;9.60;99.90
70074;DHT22;57445;51.058;3.698;2023-04-25T02:17:08;9.50;99.90
70074;DHT22;57445;51.058;3.698;2023-04-25T02:19:36;9.50;99.60
70074;DHT22;57445;51.058;3.698;2023-04-25T02:22:08;9.40;99.50
70074;DHT22;57445;51.058;3.698;2023-04-25T02:24:41;9.40;99.50
70074;DHT22;57445;51.058;3.698;2023-04-25T02:27:14;9.50;99.20
70074;DHT22;57445;51.058;3.698;2023-04-25T02:29:46;9.50;99.60
70074;DHT22;57445;51.058;3.698;2023-04-25T02:32:18;9.50;99.80
70074;DHT22;57445;51.058;3.698;2023-04-25T02:34:45;9.70;99.40
70074;DHT22;57445;51.058;3.698;2023-04-25T02:37:18;9.70;99.40
70074;DHT22;57445;51.058;3.698;2023-04-25T02:39:46;9.60;99.80
70074;DHT22;57445;51.058;3.698;2023-04-25T02:42:20;9.70;99.60
70074;DHT22;57445;51.058;3.698;2023-04-25T02:44:52;9.50;99.50
70074;DHT22;57445;51.058;3.698;2023-04-25T02:47:20;9.40;99.90
70074;DHT22;57445;51.058;3.698;2023-04-25T02:49:47;9.50;99.90
70074;DHT22;57445;51.058;3.698;2023-04-25T02:52:20;9.40;99.90
70074;DHT22;57445;51.058;3.698;2023-04-25T02:54:53;9.20;99.90
70074;DHT22;57445;51.058;3.698;2023-04-25T02:57:23;9.10;99.90
70074;DHT22;57445;51.058;3.698;2023-04-25T02:59:56;9.20;99.90
70074;DHT22;57445;51.058;3.698;2023-04-25T03:02:24;9.20;99.70
70074;DHT22;57445;51.058;3.698;2023-04-25T03:04:56;9.20;99.60
70074;DHT22;57445;51.058;3.698;2023-04-25T03:07:24;8.90;99.70
70074;DHT22;57445;51.058;3.698;2023-04-25T03:09:51;9.10;99.60
70074;DHT22;57445;51.058;3.698;2023-04-25T03:12:19;9.20;99.00
70074;DHT22;57445;51.058;3.698;2023-04-25T03:14:48;9.20;98.80
70074;DHT22;57445;51.058;3.698;2023-04-25T03:17:19;9.10;98.70
70074;DHT22;57445;51.058;3.698;2023-04-25T03:19:51;8.90;98.60
70074;DHT22;57445;51.058;3.698;2023-04-25T03:22:19;8.80;98.80
70074;DHT22;57445;51.058;3.698;2023-04-25T03:24:46;8.80;98.50
70074;DHT22;57445;51.058;3.698;2023-04-25T03:27:18;8.70;98.40
70074;DHT22;57445;51.058;3.698;2023-04-25T03:29:49;8.70;98.70
70074;DHT22;57445;51.058;3.698;2023-04-25T03:32:21;8.80;98.50
70074;DHT22;57445;51.058;3.698;2023-04-25T03:34:49;8.70;98.00
70074;DHT22;57445;51.058;3.698;2023-04-25T03:37:16;8.70;98.00
70074;DHT22;57445;51.058;3.698;2023-04-25T03:39:44;8.70;97.60
70074;DHT22;57445;51.058;3.698;2023-04-25T03:42:16;8.70;97.90
70074;DHT22;57445;51.058;3.698;2023-04-25T03:44:49;8.70;97.30
70074;DHT22;57445;51.058;3.698;2023-04-25T03:47:16;8.90;96.90
70074;DHT22;57445;51.058;3.698;2023-04-25T03:49:44;8.90;96.80
70074;DHT22;57445;51.058;3.698;2023-04-25T03:52:16;8.90;96.90
70074;DHT22;57445;51.058;3.698;2023-04-25T03:54:48;9.00;96.50
70074;DHT22;57445;51.058;3.698;2023-04-25T03:57:20;9.10;96.60
70074;DHT22;57445;51.058;3.698;2023-04-25T03:59:53;9.00;96.30
70074;DHT22;57445;51.058;3.698;2023-04-25T04:02:20;9.20;96.40
70074;DHT22;57445;51.058;3.698;2023-04-25T04:04:52;9.20;95.60
70074;DHT22;57445;51.058;3.698;2023-04-25T04:07:26;8.80;96.00
70074;DHT22;57445;51.058;3.698;2023-04-25T04:09:58;8.80;96.70
70074;DHT22;57445;51.058;3.698;2023-04-25T04:12:30;8.90;96.20
70074;DHT22;57445;51.058;3.698;2023-04-25T04:14:59;8.90;96.20
70074;DHT22;57445;51.058;3.698;2023-04-25T04:17:31;9.00;96.00
70074;DHT22;57445;51.058;3.698;2023-04-25T04:19:58;9.10;95.80
70074;DHT22;57445;51.058;3.698;2023-04-25T04:22:30;8.90;96.00
70074;DHT22;57445;51.058;3.698;2023-04-25T04:25:02;8.80;96.30
70074;DHT22;57445;51.058;3.698;2023-04-25T04:27:31;8.70;96.10
70074;DHT22;57445;51.058;3.698;2023-04-25T04:30:00;8.70;96.70
70074;DHT22;57445;51.058;3.698;2023-04-25T04:32:29;9.00;96.70
70074;DHT22;57445;51.058;3.698;2023-04-25T04:34:58;9.10;95.90
70074;DHT22;57445;51.058;3.698;2023-04-25T04:37:30;9.20;95.90
70074;DHT22;57445;51.058;3.698;2023-04-25T04:40:03;9.00;95.90
70074;DHT22;57445;51.058;3.698;2023-04-25T04:42:31;8.90;96.20
70074;DHT22;57445;51.058;3.698;2023-04-25T04:45:06;9.00;96.10
70074;DHT22;57445;51.058;3.698;2023-04-25T04:47:33;8.90;96.50
70074;DHT22;57445;51.058;3.698;2023-04-25T04:50:03;8.90;96.40
70074;DHT22;57445;51.058;3.698;2023-04-25T04:52:31;8.80;96.60
70074;DHT22;57445;51.058;3.698;2023-04-25T04:55:03;8.70;96.90
70074;DHT22;57445;51.058;3.698;2023-04-25T04:57:36;8.60;96.80
70074;DHT22;57445;51.058;3.698;2023-04-25T05:00:11;8.50;97.10
70074;DHT22;57445;51.058;3.698;2023-04-25T05:02:39;8.50;97.30
70074;DHT22;57445;51.058;3.698;2023-04-25T05:05:07;8.80;97.40
70074;DHT22;57445;51.058;3.698;2023-04-25T05:07:39;9.30;96.80
70074;DHT22;57445;51.058;3.698;2023-04-25T05:10:07;9.40;95.70
70074;DHT22;57445;51.058;3.698;2023-04-25T05:12:35;9.60;96.00
70074;DHT22;57445;51.058;3.698;2023-04-25T05:15:02;9.50;94.80
70074;DHT22;57445;51.058;3.698;2023-04-25T05:17:31;9.60;95.10
70074;DHT22;57445;51.058;3.698;2023-04-25T05:19:58;9.70;95.00
70074;DHT22;57445;51.058;3.698;2023-04-25T05:22:30;9.80;94.50
70074;DHT22;57445;51.058;3.698;2023-04-25T05:25:02;10.00;94.00
70074;DHT22;57445;51.058;3.698;2023-04-25T05:27:35;10.20;94.20
70074;DHT22;57445;51.058;3.698;2023-04-25T05:30:02;10.30;93.20
70074;DHT22;57445;51.058;3.698;2023-04-25T05:32:36;10.30;93.70
70074;DHT22;57445;51.058;3.698;2023-04-25T05:35:04;10.10;93.50
70074;DHT22;57445;51.058;3.698;2023-04-25T05:37:32;10.00;93.40
70074;DHT22;57445;51.058;3.698;2023-04-25T05:40:00;9.80;93.20
70074;DHT22;57445;51.058;3.698;2023-04-25T05:42:27;9.60;94.10
70074;DHT22;57445;51.058;3.698;2023-04-25T05:44:55;9.90;93.10
70074;DHT22;57445;51.058;3.698;2023-04-25T05:47:22;9.80;93.20
70074;DHT22;57445;51.058;3.698;2023-04-25T05:49:51;9.70;93.30
70074;DHT22;57445;51.058;3.698;2023-04-25T05:52:23;9.60;93.40
70074;DHT22;57445;51.058;3.698;2023-04-25T05:54:56;9.50;93.70
70074;DHT22;57445;51.058;3.698;2023-04-25T05:57:24;9.40;93.30
70074;DHT22;57445;51.058;3.698;2023-04-25T05:59:52;9.30;94.10
70074;DHT22;57445;51.058;3.698;2023-04-25T06:02:20;9.20;94.30
70074;DHT22;57445;51.058;3.698;2023-04-25T06:04:54;9.20;94.30
70074;DHT22;57445;51.058;3.698;2023-04-25T06:07:21;9.30;94.60
70074;DHT22;57445;51.058;3.698;2023-04-25T06:09:48;9.40;93.80
70074;DHT22;57445;51.058;3.698;2023-04-25T06:12:19;9.40;93.80
70074;DHT22;57445;51.058;3.698;2023-04-25T06:14:46;9.40;93.90
70074;DHT22;57445;51.058;3.698;2023-04-25T06:17:18;9.50;93.80
70074;DHT22;57445;51.058;3.698;2023-04-25T06:19:46;9.60;93.60
70074;DHT22;57445;51.058;3.698;2023-04-25T06:22:14;9.50;93.40
70074;DHT22;57445;51.058;3.698;2023-04-25T06:24:46;9.20;94.00
70074;DHT22;57445;51.058;3.698;2023-04-25T06:27:18;9.30;94.20
70074;DHT22;57445;51.058;3.698;2023-04-25T06:29:50;9.60;94.00
70074;DHT22;57445;51.058;3.698;2023-04-25T06:32:18;9.80;93.30
70074;DHT22;57445;51.058;3.698;2023-04-25T06:34:50;9.60;93.40
70074;DHT22;57445;51.058;3.698;2023-04-25T06:37:23;9.50;93.50
70074;DHT22;57445;51.058;3.698;2023-04-25T06:39:51;9.50;93.10
70074;DHT22;57445;51.058;3.698;2023-04-25T06:42:23;9.30;93.50
70074;DHT22;57445;51.058;3.698;2023-04-25T06:44:50;9.20;93.30
70074;DHT22;57445;51.058;3.698;2023-04-25T06:47:18;9.10;93.30
70074;DHT22;57445;51.058;3.698;2023-04-25T06:49:45;9.10;93.50
70074;DHT22;57445;51.058;3.698;2023-04-25T06:52:17;9.20;93.50
70074;DHT22;57445;51.058;3.698;2023-04-25T06:54:51;9.30;93.30
70074;DHT22;57445;51.058;3.698;2023-04-25T06:57:23;9.30;93.20
70074;DHT22;57445;51.058;3.698;2023-04-25T06:59:55;9.50;93.30
70074;DHT22;57445;51.058;3.698;2023-04-25T07:02:22;9.50;93.20
70074;DHT22;57445;51.058;3.698;2023-04-25T07:04:54;9.50;92.90
70074;DHT22;57445;51.058;3.698;2023-04-25T07:07:30;9.30;93.10
70074;DHT22;57445;51.058;3.698;2023-04-25T07:09:58;9.20;93.50
70074;DHT22;57445;51.058;3.698;2023-04-25T07:12:31;9.20;93.70
70074;DHT22;57445;51.058;3.698;2023-04-25T07:15:03;9.30;93.90
70074;DHT22;57445;51.058;3.698;2023-04-25T07:17:32;9.50;93.40
70074;DHT22;57445;51.058;3.698;2023-04-25T07:20:00;9.50;93.20
70074;DHT22;57445;51.058;3.698;2023-04-25T07:22:34;9.50;93.10
70074;DHT22;57445;51.058;3.698;2023-04-25T07:25:07;9.60;92.60
70074;DHT22;57445;51.058;3.698;2023-04-25T07:27:35;9.40;92.50
70074;DHT22;57445;51.058;3.698;2023-04-25T07:30:07;9.40;92.40
70074;DHT22;57445;51.058;3.698;2023-04-25T07:32:39;9.30;92.60
70074;DHT22;57445;51.058;3.698;2023-04-25T07:35:12;9.40;92.70
70074;DHT22;57445;51.058;3.698;2023-04-25T07:37:39;9.30;92.20
70074;DHT22;57445;51.058;3.698;2023-04-25T07:40:13;9.30;91.80
70074;DHT22;57445;51.058;3.698;2023-04-25T07:42:46;9.50;91.60
70074;DHT22;57445;51.058;3.698;2023-04-25T07:45:14;9.70;91.40
70074;DHT22;57445;51.058;3.698;2023-04-25T07:47:45;9.80;89.90
70074;DHT22;57445;51.058;3.698;2023-04-25T07:50:17;9.90;90.20
70074;DHT22;57445;51.058;3.698;2023-04-25T07:52:50;10.10;90.30
70074;DHT22;57445;51.058;3.698;2023-04-25T07:55:23;10.20;90.10
70074;DHT22;57445;51.058;3.698;2023-04-25T07:57:55;10.40;88.60
70074;DHT22;57445;51.058;3.698;2023-04-25T08:00:23;10.50;89.30
70074;DHT22;57445;51.058;3.698;2023-04-25T08:02:55;10.50;90.00
70074;DHT22;57445;51.058;3.698;2023-04-25T08:05:27;10.60;89.70
70074;DHT22;57445;51.058;3.698;2023-04-25T08:07:54;10.70;90.00
70074;DHT22;57445;51.058;3.698;2023-04-25T08:10:28;10.70;89.60
70074;DHT22;57445;51.058;3.698;2023-04-25T08:12:56;10.40;90.10
70074;DHT22;57445;51.058;3.698;2023-04-25T08:15:27;10.50;90.30
70074;DHT22;57445;51.058;3.698;2023-04-25T08:17:59;10.30;89.60
70074;DHT22;57445;51.058;3.698;2023-04-25T08:20:27;10.10;89.20
70074;DHT22;57445;51.058;3.698;2023-04-25T08:22:59;10.10;89.20
70074;DHT22;57445;51.058;3.698;2023-04-25T08:25:33;10.20;89.40
70074;DHT22;57445;51.058;3.698;2023-04-25T08:28:05;10.50;89.20
70074;DHT22;57445;51.058;3.698;2023-04-25T08:30:33;10.60;88.80
70074;DHT22;57445;51.058;3.698;2023-04-25T08:33:00;10.80;87.50
70074;DHT22;57445;51.058;3.698;2023-04-25T08:35:32;11.00;83.20
70074;DHT22;57445;51.058;3.698;2023-04-25T08:38:04;10.80;83.70
70074;DHT22;57445;51.058;3.698;2023-04-25T08:40:38;10.90;80.40
70074;DHT22;57445;51.058;3.698;2023-04-25T08:43:12;10.80;80.90
70074;DHT22;57445;51.058;3.698;2023-04-25T08:45:45;10.70;82.50
70074;DHT22;57445;51.058;3.698;2023-04-25T08:48:13;10.60;83.60
70074;DHT22;57445;51.058;3.698;2023-04-25T08:50:44;10.60;84.20
70074;DHT22;57445;51.058;3.698;2023-04-25T08:53:16;10.80;82.90
70074;DHT22;57445;51.058;3.698;2023-04-25T08:55:51;11.00;82.10
70074;DHT22;57445;51.058;3.698;2023-04-25T08:58:23;11.70;81.00
70074;DHT22;57445;51.058;3.698;2023-04-25T09:00:55;12.30;76.50
70074;DHT22;57445;51.058;3.698;2023-04-25T09:03:23;12.20;76.00
70074;DHT22;57445;51.058;3.698;2023-04-25T09:05:55;11.70;77.50
70074;DHT22;57445;51.058;3.698;2023-04-25T09:08:22;11.50;78.90
70074;DHT22;57445;51.058;3.698;2023-04-25T09:10:55;11.00;84.00
70074;DHT22;57445;51.058;3.698;2023-04-25T09:13:28;10.30;90.60
70074;DHT22;57445;51.058;3.698;2023-04-25T09:16:00;10.10;91.90
70074;DHT22;57445;51.058;3.698;2023-04-25T09:18:32;9.90;92.50
70074;DHT22;57445;51.058;3.698;2023-04-25T09:21:06;9.90;92.60
70074;DHT22;57445;51.058;3.698;2023-04-25T09:23:38;9.80;92.50
70074;DHT22;57445;51.058;3.698;2023-04-25T09:26:07;9.80;92.60
70074;DHT22;57445;51.058;3.698;2023-04-25T09:28:40;9.80;92.60
70074;DHT22;57445;51.058;3.698;2023-04-25T09:31:10;9.60;92.50
70074;DHT22;57445;51.058;3.698;2023-04-25T09:33:38;9.70;92.20
70074;DHT22;57445;51.058;3.698;2023-04-25T09:36:06;9.80;92.10
70074;DHT22;57445;51.058;3.698;2023-04-25T09:38:40;10.00;91.60
70074;DHT22;57445;51.058;3.698;2023-04-25T09:41:14;10.40;91.50
70074;DHT22;57445;51.058;3.698;2023-04-25T09:43:49;10.80;90.40
70074;DHT22;57445;51.058;3.698;2023-04-25T09:46:21;11.00;89.30
70074;DHT22;57445;51.058;3.698;2023-04-25T09:48:55;11.40;86.30
70074;DHT22;57445;51.058;3.698;2023-04-25T09:51:27;11.50;85.10
70074;DHT22;57445;51.058;3.698;2023-04-25T09:53:59;11.40;84.00
70074;DHT22;57445;51.058;3.698;2023-04-25T09:56:28;11.80;84.90
70074;DHT22;57445;51.058;3.698;2023-04-25T09:58:59;12.10;83.80
70074;DHT22;57445;51.058;3.698;2023-04-25T10:01:27;12.30;81.50
70074;DHT22;57445;51.058;3.698;2023-04-25T10:03:59;11.80;81.90
70074;DHT22;57445;51.058;3.698;2023-04-25T10:06:32;11.60;83.10
70074;DHT22;57445;51.058;3.698;2023-04-25T10:09:00;11.40;84.00
70074;DHT22;57445;51.058;3.698;2023-04-25T10:11:35;11.30;83.50
70074;DHT22;57445;51.058;3.698;2023-04-25T10:14:03;11.10;84.20
70074;DHT22;57445;51.058;3.698;2023-04-25T10:16:36;11.10;83.70
70074;DHT22;57445;51.058;3.698;2023-04-25T10:19:09;11.50;83.00
70074;DHT22;57445;51.058;3.698;2023-04-25T10:21:44;11.60;82.90
70074;DHT22;57445;51.058;3.698;2023-04-25T10:24:17;11.70;83.70
70074;DHT22;57445;51.058;3.698;2023-04-25T10:26:47;11.40;85.00
70074;DHT22;57445;51.058;3.698;2023-04-25T10:29:21;11.20;85.80
70074;DHT22;57445;51.058;3.698;2023-04-25T10:31:53;11.10;86.60
70074;DHT22;57445;51.058;3.698;2023-04-25T10:34:23;11.00;87.40
70074;DHT22;57445;51.058;3.698;2023-04-25T10:36:56;11.20;86.60
70074;DHT22;57445;51.058;3.698;2023-04-25T10:39:24;11.00;87.30
70074;DHT22;57445;51.058;3.698;2023-04-25T10:41:53;11.30;86.50
70074;DHT22;57445;51.058;3.698;2023-04-25T10:44:26;11.30;87.50
70074;DHT22;57445;51.058;3.698;2023-04-25T10:46:55;11.40;86.50
70074;DHT22;57445;51.058;3.698;2023-04-25T10:49:31;11.40;86.40
70074;DHT22;57445;51.058;3.698;2023-04-25T10:52:13;11.60;86.20
70074;DHT22;57445;51.058;3.698;2023-04-25T10:54:48;11.80;85.60
70074;DHT22;57445;51.058;3.698;2023-04-25T10:57:27;12.20;84.70
70074;DHT22;57445;51.058;3.698;2023-04-25T10:59:58;12.60;81.70
70074;DHT22;57445;51.058;3.698;2023-04-25T11:02:30;12.70;80.30
70074;DHT22;57445;51.058;3.698;2023-04-25T11:05:02;12.80;78.20
70074;DHT22;57445;51.058;3.698;2023-04-25T11:07:33;12.50;76.90
70074;DHT22;57445;51.058;3.698;2023-04-25T11:10:02;12.30;77.10
70074;DHT22;57445;51.058;3.698;2023-04-25T11:12:36;12.20;78.00
70074;DHT22;57445;51.058;3.698;2023-04-25T11:15:08;12.20;77.80
70074;DHT22;57445;51.058;3.698;2023-04-25T11:17:36;12.50;76.90
70074;DHT22;57445;51.058;3.698;2023-04-25T11:20:10;12.40;77.10
70074;DHT22;57445;51.058;3.698;2023-04-25T11:22:44;12.00;76.80
70074;DHT22;57445;51.058;3.698;2023-04-25T11:25:13;12.20;76.30
70074;DHT22;57445;51.058;3.698;2023-04-25T11:27:53;12.20;75.40
70074;DHT22;57445;51.058;3.698;2023-04-25T11:30:25;11.90;75.90
70074;DHT22;57445;51.058;3.698;2023-04-25T11:32:53;11.90;74.20
70074;DHT22;57445;51.058;3.698;2023-04-25T11:35:25;12.10;73.50
70074;DHT22;57445;51.058;3.698;2023-04-25T11:37:57;12.00;74.80
70074;DHT22;57445;51.058;3.698;2023-04-25T11:40:24;12.00;76.40
70074;DHT22;57445;51.058;3.698;2023-04-25T11:42:59;12.20;76.40
70074;DHT22;57445;51.058;3.698;2023-04-25T11:45:31;12.00;77.80
70074;DHT22;57445;51.058;3.698;2023-04-25T11:48:03;12.00;78.30
70074;DHT22;57445;51.058;3.698;2023-04-25T11:50:35;12.30;77.70
70074;DHT22;57445;51.058;3.698;2023-04-25T11:53:07;12.50;77.50
70074;DHT22;57445;51.058;3.698;2023-04-25T11:55:39;12.10;78.00
70074;DHT22;57445;51.058;3.698;2023-04-25T11:58:13;12.10;78.00
70074;DHT22;57445;51.058;3.698;2023-04-25T12:00:41;12.10;76.00
70074;DHT22;57445;51.058;3.698;2023-04-25T12:03:13;12.10;76.00
70074;DHT22;57445;51.058;3.698;2023-04-25T12:05:45;12.10;74.80
70074;DHT22;57445;51.058;3.698;2023-04-25T12:08:13;11.80;75.30
70074;DHT22;57445;51.058;3.698;2023-04-25T12:10:45;11.60;76.70
70074;DHT22;57445;51.058;3.698;2023-04-25T12:13:21;11.80;77.10
70074;DHT22;57445;51.058;3.698;2023-04-25T12:15:54;12.00;76.90
70074;DHT22;57445;51.058;3.698;2023-04-25T12:18:26;12.20;73.50
70074;DHT22;57445;51.058;3.698;2023-04-25T12:20:58;12.20;73.70
70074;DHT22;57445;51.058;3.698;2023-04-25T12:23:30;12.60;74.80
70074;DHT22;57445;51.058;3.698;2023-04-25T12:26:02;13.00;75.30
70074;DHT22;57445;51.058;3.698;2023-04-25T12:28:36;13.80;72.30
70074;DHT22;57445;51.058;3.698;2023-04-25T12:31:03;13.60;69.90
70074;DHT22;57445;51.058;3.698;2023-04-25T12:33:36;13.20;70.40
70074;DHT22;57445;51.058;3.698;2023-04-25T12:36:09;12.80;70.90
70074;DHT22;57445;51.058;3.698;2023-04-25T12:38:39;12.30;71.60
70074;DHT22;57445;51.058;3.698;2023-04-25T12:41:11;12.30;71.90
70074;DHT22;57445;51.058;3.698;2023-04-25T12:43:45;12.60;71.70
70074;DHT22;57445;51.058;3.698;2023-04-25T12:46:12;12.30;71.90
70074;DHT22;57445;51.058;3.698;2023-04-25T12:48:40;12.60;73.40
70074;DHT22;57445;51.058;3.698;2023-04-25T12:51:07;12.30;75.10
70074;DHT22;57445;51.058;3.698;2023-04-25T12:53:40;12.40;74.20
70074;DHT22;57445;51.058;3.698;2023-04-25T12:56:08;12.90;73.90
70074;DHT22;57445;51.058;3.698;2023-04-25T12:58:35;12.60;75.20
70074;DHT22;57445;51.058;3.698;2023-04-25T13:01:09;12.30;76.50
70074;DHT22;57445;51.058;3.698;2023-04-25T13:03:42;11.70;77.60
70074;DHT22;57445;51.058;3.698;2023-04-25T13:06:10;11.40;78.90
70074;DHT22;57445;51.058;3.698;2023-04-25T13:08:38;11.40;79.10
70074;DHT22;57445;51.058;3.698;2023-04-25T13:11:12;11.60;78.20
70074;DHT22;57445;51.058;3.698;2023-04-25T13:13:40;11.80;77.00
70074;DHT22;57445;51.058;3.698;2023-04-25T13:16:10;11.80;77.20
70074;DHT22;57445;51.058;3.698;2023-04-25T13:18:46;12.20;76.60
70074;DHT22;57445;51.058;3.698;2023-04-25T13:21:13;12.50;76.10
70074;DHT22;57445;51.058;3.698;2023-04-25T13:23:41;12.30;76.40
70074;DHT22;57445;51.058;3.698;2023-04-25T13:26:13;12.10;77.10
70074;DHT22;57445;51.058;3.698;2023-04-25T13:28:45;12.30;77.10
70074;DHT22;57445;51.058;3.698;2023-04-25T13:31:14;12.20;78.90
70074;DHT22;57445;51.058;3.698;2023-04-25T13:33:42;12.20;79.60
70074;DHT22;57445;51.058;3.698;2023-04-25T13:36:15;12.10;80.30
70074;DHT22;57445;51.058;3.698;2023-04-25T13:38:47;11.70;80.90
70074;DHT22;57445;51.058;3.698;2023-04-25T13:41:19;11.50;80.50
70074;DHT22;57445;51.058;3.698;2023-04-25T13:43:51;11.20;80.00
70074;DHT22;57445;51.058;3.698;2023-04-25T13:46:20;11.30;79.60
70074;DHT22;57445;51.058;3.698;2023-04-25T13:48:52;11.70;78.30
70074;DHT22;57445;51.058;3.698;2023-04-25T13:51:20;11.90;77.80
70074;DHT22;57445;51.058;3.698;2023-04-25T13:53:52;11.80;77.90
70074;DHT22;57445;51.058;3.698;2023-04-25T13:56:23;11.80;78.10
70074;DHT22;57445;51.058;3.698;2023-04-25T13:58:55;11.90;77.20
70074;DHT22;57445;51.058;3.698;2023-04-25T14:01:30;11.70;77.00
70074;DHT22;57445;51.058;3.698;2023-04-25T14:04:00;11.80;75.60
70074;DHT22;57445;51.058;3.698;2023-04-25T14:06:27;11.50;75.10
70074;DHT22;57445;51.058;3.698;2023-04-25T14:08:55;11.80;74.20
70074;DHT22;57445;51.058;3.698;2023-04-25T14:11:23;11.40;74.30
70074;DHT22;57445;51.058;3.698;2023-04-25T14:13:55;11.50;73.60
70074;DHT22;57445;51.058;3.698;2023-04-25T14:16:23;11.80;73.00
70074;DHT22;57445;51.058;3.698;2023-04-25T14:18:57;11.40;73.30
70074;DHT22;57445;51.058;3.698;2023-04-25T14:21:29;11.40;74.00
70074;DHT22;57445;51.058;3.698;2023-04-25T14:23:58;11.50;74.80
70074;DHT22;57445;51.058;3.698;2023-04-25T14:26:26;11.80;74.90
70074;DHT22;57445;51.058;3.698;2023-04-25T14:28:53;11.90;74.90
70074;DHT22;57445;51.058;3.698;2023-04-25T14:31:21;12.10;74.00
70074;DHT22;57445;51.058;3.698;2023-04-25T14:33:48;12.00;73.80
70074;DHT22;57445;51.058;3.698;2023-04-25T14:36:17;11.50;73.00
70074;DHT22;57445;51.058;3.698;2023-04-25T14:38:44;11.80;73.30
70074;DHT22;57445;51.058;3.698;2023-04-25T14:41:17;12.10;73.30
70074;DHT22;57445;51.058;3.698;2023-04-25T14:43:49;12.50;70.90
70074;DHT22;57445;51.058;3.698;2023-04-25T14:46:16;12.50;70.80
70074;DHT22;57445;51.058;3.698;2023-04-25T14:48:44;12.20;71.00
70074;DHT22;57445;51.058;3.698;2023-04-25T14:51:13;12.30;70.60
70074;DHT22;57445;51.058;3.698;2023-04-25T14:53:46;12.20;71.10
70074;DHT22;57445;51.058;3.698;2023-04-25T14:56:14;12.20;71.90
70074;DHT22;57445;51.058;3.698;2023-04-25T14:58:41;11.90;72.80
70074;DHT22;57445;51.058;3.698;2023-04-25T15:01:13;12.00;73.10
70074;DHT22;57445;51.058;3.698;2023-04-25T15:03:45;12.00;73.10
70074;DHT22;57445;51.058;3.698;2023-04-25T15:06:13;12.10;72.80
70074;DHT22;57445;51.058;3.698;2023-04-25T15:08:46;11.60;74.50
70074;DHT22;57445;51.058;3.698;2023-04-25T15:11:14;11.40;74.20
70074;DHT22;57445;51.058;3.698;2023-04-25T15:13:41;11.40;74.10
70074;DHT22;57445;51.058;3.698;2023-04-25T15:16:13;11.70;73.00
70074;DHT22;57445;51.058;3.698;2023-04-25T15:18:45;11.70;70.60
70074;DHT22;57445;51.058;3.698;2023-04-25T15:21:13;11.60;71.70
70074;DHT22;57445;51.058;3.698;2023-04-25T15:23:40;11.60;70.30
70074;DHT22;57445;51.058;3.698;2023-04-25T15:26:14;11.40;71.80
70074;DHT22;57445;51.058;3.698;2023-04-25T15:28:46;11.40;73.10
70074;DHT22;57445;51.058;3.698;2023-04-25T15:31:19;11.50;72.00
70074;DHT22;57445;51.058;3.698;2023-04-25T15:33:51;11.60;74.10
70074;DHT22;57445;51.058;3.698;2023-04-25T15:36:19;11.80;73.70
70074;DHT22;57445;51.058;3.698;2023-04-25T15:38:52;12.30;73.00
70074;DHT22;57445;51.058;3.698;2023-04-25T15:41:25;12.20;72.60
70074;DHT22;57445;51.058;3.698;2023-04-25T15:43:57;12.20;72.40
70074;DHT22;57445;51.058;3.698;2023-04-25T15:46:26;12.50;70.30
70074;DHT22;57445;51.058;3.698;2023-04-25T15:48:58;12.60;70.10
70074;DHT22;57445;51.058;3.698;2023-04-25T15:51:25;12.70;70.20
70074;DHT22;57445;51.058;3.698;2023-04-25T15:53:57;12.70;70.50
70074;DHT22;57445;51.058;3.698;2023-04-25T15:56:28;12.40;73.70
70074;DHT22;57445;51.058;3.698;2023-04-25T15:59:01;12.30;74.20